createdAt,value
2024-02-12T00:00:34.953Z,60.39
2024-02-12T00:03:21.325Z,60.10
2024-02-12T00:05:53.377Z,60.36
2024-02-12T00:08:27.970Z,60.55
2024-02-12T00:11:02.949Z,60.35
2024-02-12T00:13:40.971Z,60.86
2024-02-12T00:16:17.942Z,61.19
2024-02-12T00:18:52.774Z,61.29
2024-02-12T00:21:24.251Z,61.15
2024-02-12T00:23:58.696Z,61.20
2024-02-12T00:26:29.967Z,61.00
2024-02-12T00:29:07.579Z,61.47
2024-02-12T00:31:40.556Z,61.46
2024-02-12T00:34:14.847Z,61.46
2024-02-12T00:36:47.296Z,61.33
2024-02-12T00:39:19.923Z,60.75
2024-02-12T00:41:55.469Z,60.65
2024-02-12T00:44:29.628Z,60.64
2024-02-12T00:47:05.239Z,60.70
2024-02-12T00:49:36.745Z,60.84
2024-02-12T00:52:09.872Z,60.46
2024-02-12T00:54:42.873Z,60.40
2024-02-12T00:57:15.253Z,60.40
2024-02-12T00:59:51.971Z,60.46
2024-02-12T01:02:24.496Z,60.49
2024-02-12T01:05:01.553Z,60.66
2024-02-12T01:07:35.340Z,60.74
2024-02-12T01:10:08.244Z,60.62
2024-02-12T01:12:47.664Z,60.62
2024-02-12T01:15:28.174Z,60.75
2024-02-12T01:18:26.545Z,60.72
2024-02-12T01:20:58.870Z,60.77
2024-02-12T01:23:31.997Z,60.85
2024-02-12T01:26:06.312Z,60.47
2024-02-12T01:28:40.302Z,60.58
2024-02-12T01:31:24.038Z,60.55
2024-02-12T01:33:58.445Z,60.58
2024-02-12T01:36:38.464Z,60.22
2024-02-12T01:39:13.244Z,60.56
2024-02-12T01:41:49.738Z,60.41
2024-02-12T01:44:25.505Z,60.63
2024-02-12T01:47:24.656Z,60.30
2024-02-12T01:50:09.118Z,60.37
2024-02-12T01:52:51.156Z,60.27
2024-02-12T01:55:25.396Z,60.28
2024-02-12T01:57:59.646Z,60.38
2024-02-12T02:00:31.361Z,60.28
2024-02-12T02:03:19.163Z,60.09
2024-02-12T02:05:59.011Z,60.04
2024-02-12T02:08:46.746Z,59.75
2024-02-12T02:11:21.729Z,59.69
2024-02-12T02:14:00.426Z,59.56
2024-02-12T02:16:45.118Z,59.44
2024-02-12T02:19:25.136Z,59.36
2024-02-12T02:21:59.058Z,59.40
2024-02-12T02:24:37.243Z,59.30
2024-02-12T02:27:09.297Z,59.32
2024-02-12T02:29:44.964Z,59.24
2024-02-12T02:32:18.709Z,59.32
2024-02-12T02:34:49.784Z,59.12
2024-02-12T02:37:22.965Z,59.33
2024-02-12T02:40:03.029Z,59.13
2024-02-12T02:42:35.832Z,58.97
2024-02-12T02:45:08.278Z,59.00
2024-02-12T02:48:04.679Z,59.06
2024-02-12T02:50:38.791Z,58.93
2024-02-12T02:53:10.576Z,59.22
2024-02-12T02:55:48.462Z,59.04
2024-02-12T02:58:24.379Z,58.95
2024-02-12T03:00:59.508Z,58.95
2024-02-12T03:03:30.820Z,58.92
2024-02-12T03:06:07.860Z,58.99
2024-02-12T03:08:41.919Z,59.03
2024-02-12T03:11:24.341Z,58.84
2024-02-12T03:14:01.965Z,58.93
2024-02-12T03:16:34.641Z,58.96
2024-02-12T03:19:06.795Z,59.18
2024-02-12T03:21:42.764Z,59.34
2024-02-12T03:24:14.976Z,59.41
2024-02-12T03:26:52.373Z,59.75
2024-02-12T03:29:27.002Z,59.92
2024-02-12T03:32:05.546Z,60.41
2024-02-12T03:34:37.639Z,60.75
2024-02-12T03:37:09.621Z,61.32
2024-02-12T03:39:40.883Z,61.36
2024-02-12T03:42:15.063Z,61.77
2024-02-12T03:44:46.835Z,61.95
2024-02-12T03:47:20.063Z,62.51
2024-02-12T03:50:03.852Z,63.03
2024-02-12T03:52:48.212Z,62.88
2024-02-12T03:55:32.168Z,63.40
2024-02-12T03:58:18.661Z,64.20
2024-02-12T04:00:50.329Z,64.80
2024-02-12T04:03:24.616Z,65.16
2024-02-12T04:06:02.272Z,65.69
2024-02-12T04:08:37.011Z,65.97
2024-02-12T04:11:12.293Z,66.16
2024-02-12T04:13:48.096Z,66.32
2024-02-12T04:16:20.095Z,66.09
2024-02-12T04:18:55.227Z,66.15
2024-02-12T04:21:26.497Z,66.43
2024-02-12T04:23:59.368Z,66.58
2024-02-12T04:26:30.906Z,66.51
2024-02-12T04:29:08.014Z,66.87
2024-02-12T04:31:39.807Z,66.80
2024-02-12T04:34:15.111Z,67.23
2024-02-12T04:36:46.589Z,67.45
2024-02-12T04:39:18.528Z,68.20
2024-02-12T04:41:52.962Z,68.65
2024-02-12T04:44:27.106Z,68.74
2024-02-12T04:46:59.855Z,68.83
2024-02-12T04:49:32.022Z,69.38
2024-02-12T04:52:03.857Z,69.68
2024-02-12T04:54:35.763Z,69.86
2024-02-12T04:57:07.488Z,70.00
2024-02-12T04:59:42.091Z,70.76
2024-02-12T05:02:13.960Z,71.68
2024-02-12T05:04:46.682Z,72.42
2024-02-12T05:07:18.389Z,72.78
2024-02-12T05:09:51.026Z,73.94
2024-02-12T05:12:34.250Z,75.31
2024-02-12T05:15:13.722Z,76.39
2024-02-12T05:17:56.924Z,77.36
2024-02-12T05:20:40.732Z,77.66
2024-02-12T05:23:17.052Z,77.93
2024-02-12T05:25:53.562Z,78.56
2024-02-12T05:28:30.798Z,78.66
2024-02-12T05:31:05.281Z,78.40
2024-02-12T05:33:37.264Z,79.05
2024-02-12T05:36:15.703Z,78.86
2024-02-12T05:38:49.476Z,78.55
2024-02-12T05:41:22.843Z,78.87
2024-02-12T05:43:57.972Z,78.63
2024-02-12T05:46:34.680Z,78.42
2024-02-12T05:49:11.751Z,78.18
2024-02-12T05:51:44.930Z,78.11
2024-02-12T05:54:27.106Z,77.76
2024-02-12T05:56:59.226Z,77.76
2024-02-12T05:59:34.752Z,77.34
2024-02-12T06:02:14.175Z,77.48
2024-02-12T06:04:46.490Z,77.19
2024-02-12T06:07:18.527Z,76.79
2024-02-12T06:09:50.296Z,76.92
2024-02-12T06:12:24.502Z,76.76
2024-02-12T06:14:56.537Z,76.65
2024-02-12T06:17:32.759Z,76.48
2024-02-12T06:20:09.950Z,76.27
2024-02-12T06:22:45.449Z,76.49
2024-02-12T06:25:22.388Z,76.39
2024-02-12T06:27:57.941Z,76.34
2024-02-12T06:30:36.397Z,76.42
2024-02-12T06:33:19.744Z,76.55
2024-02-12T06:35:58.557Z,76.86
2024-02-12T06:38:33.330Z,77.17
2024-02-12T06:41:09.466Z,77.29
2024-02-12T06:43:44.091Z,76.93
2024-02-12T06:46:15.563Z,76.89
2024-02-12T06:48:53.717Z,77.06
2024-02-12T06:51:25.716Z,76.93
2024-02-12T06:54:06.779Z,76.14
2024-02-12T06:56:43.590Z,75.79
2024-02-12T06:59:15.933Z,75.74
2024-02-12T07:01:50.537Z,75.28
2024-02-12T07:04:27.726Z,74.89
2024-02-12T07:07:01.392Z,74.36
2024-02-12T07:09:36.693Z,73.76
2024-02-12T07:12:11.892Z,73.97
2024-02-12T07:14:44.758Z,73.97
2024-02-12T07:17:20.419Z,74.06
2024-02-12T07:20:02.487Z,73.78
2024-02-12T07:22:36.460Z,73.57
2024-02-12T07:25:17.028Z,73.23
2024-02-12T07:27:56.202Z,72.72
2024-02-12T07:30:31.845Z,72.41
2024-02-12T07:33:05.842Z,71.99
2024-02-12T07:35:40.648Z,72.29
2024-02-12T07:38:12.658Z,72.66
2024-02-12T07:40:45.393Z,71.84
2024-02-12T07:43:16.924Z,72.14
2024-02-12T07:45:48.474Z,72.21
2024-02-12T07:48:21.660Z,72.53
2024-02-12T07:51:00.350Z,72.34
2024-02-12T07:53:32.384Z,72.72
2024-02-12T07:56:06.677Z,72.07
2024-02-12T07:58:40.762Z,72.22
2024-02-12T08:01:14.380Z,72.07
2024-02-12T08:03:46.581Z,72.40
2024-02-12T08:06:26.461Z,71.49
2024-02-12T08:08:58.255Z,71.73
2024-02-12T08:11:32.571Z,71.87
2024-02-12T08:14:13.652Z,71.23
2024-02-12T08:16:51.799Z,72.08
2024-02-12T08:19:41.151Z,71.68
2024-02-12T08:22:17.068Z,71.66
2024-02-12T08:24:55.668Z,71.43
2024-02-12T08:27:29.295Z,72.24
2024-02-12T08:30:08.716Z,72.28
2024-02-12T08:32:42.421Z,72.10
2024-02-12T08:35:15.025Z,72.35
2024-02-12T08:38:02.513Z,72.38
2024-02-12T08:40:40.584Z,72.58
2024-02-12T08:43:12.223Z,72.06
2024-02-12T08:45:46.350Z,71.47
2024-02-12T08:48:23.402Z,70.60
2024-02-12T08:51:05.803Z,70.62
2024-02-12T08:53:45.786Z,70.66
2024-02-12T08:56:37.541Z,70.29
2024-02-12T08:59:12.457Z,71.16
2024-02-12T09:01:44.910Z,70.85
2024-02-12T09:04:21.508Z,70.49
2024-02-12T09:06:53.003Z,70.23
2024-02-12T09:09:27.965Z,70.23
2024-02-12T09:12:02.823Z,69.94
2024-02-12T09:14:36.883Z,70.14
2024-02-12T09:17:13.522Z,69.31
2024-02-12T09:19:46.407Z,68.19
2024-02-12T09:22:18.244Z,67.47
2024-02-12T09:24:58.718Z,67.21
2024-02-12T09:27:32.851Z,67.18
2024-02-12T09:30:08.353Z,66.17
2024-02-12T09:32:46.035Z,66.08
2024-02-12T09:35:20.716Z,66.29
2024-02-12T09:38:01.374Z,66.46
2024-02-12T09:40:47.673Z,66.47
2024-02-12T09:43:30.169Z,65.79
2024-02-12T09:46:09.087Z,65.42
2024-02-12T09:48:41.608Z,64.75
2024-02-12T09:51:15.691Z,64.34
2024-02-12T09:53:57.263Z,64.57
2024-02-12T09:56:33.295Z,63.64
2024-02-12T09:59:04.757Z,63.99
2024-02-12T10:01:38.313Z,63.13
2024-02-12T10:04:31.123Z,63.44
2024-02-12T10:07:23.605Z,63.95
2024-02-12T10:10:21.770Z,63.78
2024-02-12T10:13:16.576Z,64.11
2024-02-12T10:16:08.862Z,64.15
2024-02-12T10:19:02.454Z,63.96
2024-02-12T10:21:56.929Z,63.58
2024-02-12T10:24:50.398Z,63.36
2024-02-12T10:27:42.238Z,62.33
2024-02-12T10:30:37.499Z,61.85
2024-02-12T10:33:30.549Z,61.40
2024-02-12T10:36:25.582Z,60.62
2024-02-12T10:39:26.134Z,60.12
2024-02-12T10:42:25.086Z,60.12
2024-02-12T10:45:20.939Z,60.12
2024-02-12T10:48:22.847Z,58.01
2024-02-12T10:51:15.443Z,57.32
2024-02-12T10:54:10.044Z,55.88
2024-02-12T10:56:45.695Z,55.35
2024-02-12T10:59:18.421Z,55.97
2024-02-12T11:01:57.803Z,55.44
2024-02-12T11:04:36.978Z,56.54
2024-02-12T11:07:13.050Z,56.30
2024-02-12T11:09:46.754Z,56.04
2024-02-12T11:12:47.085Z,57.13
2024-02-12T11:15:43.128Z,57.59
2024-02-12T11:21:18.382Z,59.29
2024-02-12T11:23:53.643Z,59.01
2024-02-12T11:26:27.232Z,57.92
2024-02-12T11:29:11.098Z,58.50
2024-02-12T11:31:49.258Z,58.54
2024-02-12T11:34:25.770Z,59.31
2024-02-12T11:37:08.578Z,59.60
2024-02-12T11:39:41.099Z,59.78
2024-02-12T11:42:25.272Z,60.15
2024-02-12T11:45:05.768Z,60.93
2024-02-12T11:47:45.462Z,61.38
2024-02-12T11:50:30.608Z,61.78
2024-02-12T11:54:01.613Z,62.13
2024-02-12T11:56:38.334Z,62.23
2024-02-12T11:59:12.072Z,62.40
2024-02-12T12:01:46.484Z,62.44
2024-02-12T12:04:18.134Z,62.40
2024-02-12T12:06:52.317Z,62.32
2024-02-12T12:09:26.793Z,62.57
2024-02-12T12:12:00.059Z,62.37
2024-02-12T12:14:41.109Z,62.81
2024-02-12T12:17:30.263Z,62.92
2024-02-12T12:20:17.748Z,62.28
2024-02-12T12:22:58.255Z,62.45
2024-02-12T12:25:38.137Z,62.21
2024-02-12T12:28:23.739Z,61.38
2024-02-12T12:30:58.400Z,60.27
2024-02-12T12:33:33.480Z,60.34
2024-02-12T12:36:13.591Z,60.67
2024-02-12T12:38:53.897Z,60.95
2024-02-12T12:41:30.977Z,60.37
2024-02-12T12:44:12.102Z,59.70
2024-02-12T12:46:44.201Z,59.41
2024-02-12T12:49:23.869Z,59.23
2024-02-12T12:51:59.304Z,58.58
2024-02-12T12:54:37.238Z,56.04
2024-02-12T12:57:14.867Z,56.20
2024-02-12T12:59:51.755Z,53.65
2024-02-12T13:02:28.068Z,52.79
2024-02-12T13:05:07.268Z,52.50
2024-02-12T13:08:17.478Z,52.98
2024-02-12T13:10:53.651Z,52.50
2024-02-12T13:13:37.188Z,52.91
2024-02-12T13:16:14.835Z,53.06
2024-02-12T13:18:49.452Z,53.04
2024-02-12T13:21:40.253Z,52.40
2024-02-12T13:24:17.503Z,53.04
2024-02-12T13:26:52.748Z,52.93
2024-02-12T13:29:28.550Z,52.73
2024-02-12T13:32:08.459Z,53.08
2024-02-12T13:34:40.602Z,52.69
2024-02-12T13:37:14.105Z,52.62
2024-02-12T13:39:48.354Z,52.47
2024-02-12T13:42:27.289Z,52.99
2024-02-12T13:45:04.663Z,53.27
2024-02-12T13:47:46.572Z,53.37
2024-02-12T13:50:18.703Z,53.85
2024-02-12T13:52:50.524Z,53.69
2024-02-12T13:55:22.908Z,53.68
2024-02-12T13:57:54.921Z,54.63
2024-02-12T14:00:47.513Z,54.57
2024-02-12T14:03:21.229Z,58.47
2024-02-12T14:05:56.625Z,60.14
2024-02-12T14:08:31.564Z,60.37
2024-02-12T14:11:03.248Z,60.27
2024-02-12T14:13:34.975Z,59.95
2024-02-12T14:16:11.299Z,59.70
2024-02-12T14:18:44.264Z,59.18
2024-02-12T14:21:17.368Z,59.79
2024-02-12T14:23:49.536Z,58.75
2024-02-12T14:26:23.210Z,58.45
2024-02-12T14:28:55.698Z,58.67
2024-02-12T14:31:34.354Z,58.38
2024-02-12T14:34:27.594Z,58.35
2024-02-12T14:36:59.563Z,58.43
2024-02-12T14:39:30.993Z,58.41
2024-02-12T14:42:02.303Z,58.21
2024-02-12T14:44:36.485Z,58.37
2024-02-12T14:47:12.260Z,58.86
2024-02-12T14:49:46.329Z,58.96
2024-02-12T14:52:20.750Z,59.20
2024-02-12T14:54:52.620Z,59.20
2024-02-12T14:57:24.229Z,59.50
2024-02-12T14:59:58.100Z,60.04
2024-02-12T15:02:32.518Z,60.57
2024-02-12T15:05:07.791Z,61.20
2024-02-12T15:07:39.599Z,61.42
2024-02-12T15:10:12.834Z,61.79
2024-02-12T15:12:48.415Z,62.25
2024-02-12T15:15:21.024Z,62.00
2024-02-12T15:17:56.961Z,62.62
2024-02-12T15:20:37.459Z,62.71
2024-02-12T15:23:12.314Z,63.05
2024-02-12T15:25:45.591Z,63.27
2024-02-12T15:28:18.492Z,63.79
2024-02-12T15:30:53.650Z,63.71
2024-02-12T15:33:49.202Z,63.88
2024-02-12T15:36:21.752Z,64.35
2024-02-12T15:38:53.617Z,64.29
2024-02-12T15:41:28.862Z,64.34
2024-02-12T15:44:38.361Z,64.32
2024-02-12T15:47:15.979Z,64.02
2024-02-12T15:49:51.321Z,63.89
2024-02-12T15:52:24.732Z,63.81
2024-02-12T15:54:57.998Z,63.97
2024-02-12T15:57:46.515Z,63.95
2024-02-12T16:00:24.693Z,63.63
2024-02-12T16:03:03.659Z,63.83
2024-02-12T16:06:07.485Z,64.27
2024-02-12T16:08:53.906Z,64.18
2024-02-12T16:11:28.758Z,64.29
2024-02-12T16:14:04.954Z,64.30
2024-02-12T16:16:37.052Z,64.16
2024-02-12T16:19:17.948Z,64.43
2024-02-12T16:21:49.384Z,64.58
2024-02-12T16:24:23.569Z,64.12
2024-02-12T16:26:55.042Z,63.97
2024-02-12T16:29:27.826Z,64.30
2024-02-12T16:31:59.235Z,64.50
2024-02-12T16:34:32.341Z,64.48
2024-02-12T16:37:05.699Z,64.70
2024-02-12T16:39:42.236Z,64.88
2024-02-12T16:42:14.577Z,65.02
2024-02-12T16:44:46.170Z,65.32
2024-02-12T16:47:19.117Z,65.28
2024-02-12T16:49:52.309Z,65.36
2024-02-12T16:52:23.902Z,65.12
2024-02-12T16:54:57.837Z,64.89
2024-02-12T16:57:53.278Z,64.49
2024-02-12T17:00:29.753Z,64.67
2024-02-12T17:03:12.068Z,64.09
2024-02-12T17:05:44.534Z,63.81
2024-02-12T17:08:19.183Z,63.59
2024-02-12T17:10:53.329Z,62.95
2024-02-12T17:13:31.488Z,62.86
2024-02-12T17:16:03.833Z,62.70
2024-02-12T17:18:36.045Z,62.46
2024-02-12T17:21:07.590Z,62.50
2024-02-12T17:23:39.499Z,62.35
2024-02-12T17:26:14.832Z,62.53
2024-02-12T17:28:46.886Z,63.02
2024-02-12T17:31:19.628Z,63.61
2024-02-12T17:33:57.531Z,64.46
2024-02-12T17:36:32.177Z,65.08
2024-02-12T17:39:03.814Z,65.14
2024-02-12T17:41:38.184Z,65.97
2024-02-12T17:44:15.221Z,66.68
2024-02-12T17:46:52.152Z,67.03
2024-02-12T17:49:23.830Z,66.77
2024-02-12T17:51:55.756Z,67.06
2024-02-12T17:54:29.456Z,67.73
2024-02-12T17:57:05.295Z,68.19
2024-02-12T17:59:40.507Z,68.68
2024-02-12T18:02:16.278Z,68.96
2024-02-12T18:04:47.953Z,68.84
2024-02-12T18:07:19.536Z,68.43
2024-02-12T18:09:52.621Z,67.93
2024-02-12T18:12:28.725Z,67.24
2024-02-12T18:15:01.719Z,67.02
2024-02-12T18:17:37.278Z,66.95
2024-02-12T18:20:10.134Z,66.02
2024-02-12T18:22:41.846Z,65.61
2024-02-12T18:25:16.310Z,65.92
2024-02-12T18:27:57.602Z,66.39
2024-02-12T18:30:28.455Z,65.82
2024-02-12T18:33:03.937Z,66.42
2024-02-12T18:35:38.272Z,66.88
2024-02-12T18:38:13.355Z,68.07
2024-02-12T18:40:45.403Z,67.92
2024-02-12T18:43:19.925Z,68.20
2024-02-12T18:45:53.416Z,68.31
2024-02-12T18:48:26.349Z,68.24
2024-02-12T18:50:57.964Z,68.17
2024-02-12T18:53:29.398Z,68.90
2024-02-12T18:56:01.407Z,69.44
2024-02-12T18:58:36.773Z,69.62
2024-02-12T19:01:12.612Z,70.15
2024-02-12T19:03:47.788Z,69.89
2024-02-12T19:06:19.839Z,69.97
2024-02-12T19:08:54.429Z,70.49
2024-02-12T19:11:26.620Z,70.19
2024-02-12T19:14:06.628Z,70.41
2024-02-12T19:16:39.219Z,70.64
2024-02-12T19:19:11.592Z,70.76
2024-02-12T19:21:46.147Z,70.74
2024-02-12T19:24:23.753Z,70.81
2024-02-12T19:26:57.655Z,70.94
2024-02-12T19:29:31.581Z,71.10
2024-02-12T19:32:05.007Z,70.94
2024-02-12T19:34:37.909Z,70.83
2024-02-12T19:37:12.012Z,70.93
2024-02-12T19:39:50.556Z,71.32
2024-02-12T19:42:24.253Z,71.90
2024-02-12T19:44:58.320Z,72.19
2024-02-12T19:47:32.981Z,71.47
2024-02-12T19:50:04.662Z,72.04
2024-02-12T19:52:36.180Z,71.74
2024-02-12T19:55:09.517Z,71.75
2024-02-12T19:57:42.696Z,72.19
2024-02-12T20:00:18.920Z,72.82
2024-02-12T20:02:52.940Z,72.70
2024-02-12T20:05:24.748Z,72.79
2024-02-12T20:07:57.118Z,73.19
2024-02-12T20:10:28.821Z,72.97
2024-02-12T20:13:00.498Z,73.28
2024-02-12T20:15:35.410Z,74.03
2024-02-12T20:18:08.043Z,74.33
2024-02-12T20:20:42.090Z,74.20
2024-02-12T20:23:15.577Z,73.95
2024-02-12T20:25:48.224Z,74.40
2024-02-12T20:28:42.084Z,74.48
2024-02-12T20:31:19.308Z,74.47
2024-02-12T20:33:53.874Z,75.18
2024-02-12T20:36:27.699Z,73.96
2024-02-12T20:38:58.549Z,74.43
2024-02-12T20:41:32.150Z,74.24
2024-02-12T20:44:03.674Z,74.17
2024-02-12T20:46:37.678Z,74.70
2024-02-12T20:49:08.661Z,74.51
2024-02-12T20:51:40.173Z,74.70
2024-02-12T20:54:11.452Z,75.16
2024-02-12T20:56:43.794Z,75.57
2024-02-12T20:59:15.009Z,75.60
2024-02-12T21:01:49.060Z,75.73
2024-02-12T21:04:20.578Z,75.45
2024-02-12T21:06:51.936Z,75.32
2024-02-12T21:09:23.115Z,75.17
2024-02-12T21:11:54.595Z,74.77
2024-02-12T21:14:26.343Z,74.11
2024-02-12T21:17:05.911Z,73.58
2024-02-12T21:19:37.115Z,73.41
2024-02-12T21:22:12.595Z,73.69
2024-02-12T21:24:46.309Z,72.90
2024-02-12T21:27:17.713Z,73.26
2024-02-12T21:29:52.672Z,72.63
2024-02-12T21:32:30.660Z,72.19
2024-02-12T21:35:03.415Z,72.61
2024-02-12T21:37:35.851Z,72.02
2024-02-12T21:40:09.842Z,71.98
2024-02-12T21:42:40.613Z,71.56
2024-02-12T21:45:13.107Z,71.69
2024-02-12T21:47:48.930Z,71.80
2024-02-12T21:50:23.934Z,71.53
2024-02-12T21:53:02.977Z,71.53
2024-02-12T21:55:34.416Z,70.96
2024-02-12T21:58:12.627Z,71.76
2024-02-12T22:00:45.869Z,72.24
2024-02-12T22:03:21.240Z,72.47
2024-02-12T22:05:57.618Z,72.54
2024-02-12T22:08:29.457Z,72.76
2024-02-12T22:11:01.787Z,72.56
2024-02-12T22:13:33.505Z,73.49
2024-02-12T22:16:07.362Z,73.30
2024-02-12T22:18:41.951Z,73.68
2024-02-12T22:21:13.673Z,74.85
2024-02-12T22:23:46.101Z,74.83
2024-02-12T22:26:17.905Z,75.37
2024-02-12T22:28:50.664Z,75.64
2024-02-12T22:31:25.933Z,75.97
2024-02-12T22:34:05.104Z,75.62
2024-02-12T22:36:37.173Z,76.34
2024-02-12T22:39:09.831Z,76.21
2024-02-12T22:41:44.740Z,76.64
2024-02-12T22:44:16.834Z,76.49
2024-02-12T22:46:48.577Z,77.10
2024-02-12T22:49:23.139Z,77.00
2024-02-12T22:51:56.473Z,78.07
2024-02-12T22:54:28.031Z,77.04
2024-02-12T22:56:59.786Z,78.10
2024-02-12T22:59:32.564Z,78.19
2024-02-12T23:02:05.607Z,77.95
2024-02-12T23:04:41.704Z,77.74
2024-02-12T23:07:14.046Z,78.65
2024-02-12T23:09:48.077Z,77.38
2024-02-12T23:12:18.924Z,77.17
2024-02-12T23:14:51.231Z,77.25
2024-02-12T23:17:25.960Z,76.31
2024-02-12T23:20:01.428Z,76.84
2024-02-12T23:22:33.224Z,76.83
2024-02-12T23:25:04.666Z,76.53
2024-02-12T23:27:37.104Z,76.27
2024-02-12T23:30:10.340Z,76.95
2024-02-12T23:32:45.654Z,76.09
2024-02-12T23:35:20.046Z,76.22
2024-02-12T23:37:52.475Z,76.14
2024-02-12T23:40:24.121Z,75.54
2024-02-12T23:42:55.316Z,76.03
2024-02-12T23:45:27.994Z,75.27
2024-02-12T23:48:20.602Z,74.74
2024-02-12T23:50:54.888Z,75.26
2024-02-12T23:53:28.041Z,74.63
2024-02-12T23:55:59.685Z,75.15
2024-02-12T23:58:35.917Z,75.99
